createdAt,value
2023-05-05T00:03:15.116Z,99250.56
2023-05-05T00:08:19.274Z,99241.00
2023-05-05T00:13:24.669Z,99254.00
2023-05-05T00:18:28.421Z,99247.03
2023-05-05T00:23:32.211Z,99239.22
2023-05-05T00:28:37.045Z,99230.53
2023-05-05T00:33:40.524Z,99235.78
2023-05-05T00:38:44.052Z,99227.09
2023-05-05T00:43:48.970Z,99225.38
2023-05-05T00:48:53.355Z,99215.81
2023-05-05T00:53:57.277Z,99208.00
2023-05-05T00:59:03.914Z,99211.47
2023-05-05T01:04:07.355Z,99218.41
2023-05-05T01:09:19.664Z,99214.94
2023-05-05T01:14:29.694Z,99214.94
2023-05-05T01:20:00.213Z,99206.25
2023-05-05T01:25:18.025Z,99212.25
2023-05-05T01:30:40.687Z,99211.38
2023-05-05T01:35:49.435Z,99212.19
2023-05-05T01:40:59.109Z,99205.19
2023-05-05T01:46:04.646Z,99200.84
2023-05-05T01:51:11.635Z,99203.41
2023-05-05T01:56:16.951Z,99199.00
2023-05-05T02:01:22.748Z,99203.31
2023-05-05T02:06:32.672Z,99195.44
2023-05-05T02:11:39.158Z,99185.00
2023-05-05T02:16:44.280Z,99189.38
2023-05-05T02:21:49.157Z,99190.25
2023-05-05T02:26:54.462Z,99191.84
2023-05-05T02:32:03.682Z,99195.47
2023-05-05T02:37:12.182Z,99199.78
2023-05-05T02:42:21.741Z,99200.38
2023-05-05T02:47:35.631Z,99200.31
2023-05-05T02:52:41.421Z,99195.94
2023-05-05T02:57:51.952Z,99191.53
2023-05-05T03:03:06.854Z,99186.28
2023-05-05T03:08:18.548Z,99184.69
2023-05-05T03:13:25.555Z,99187.31
2023-05-05T03:18:31.402Z,99194.34
2023-05-05T03:23:39.320Z,99195.25
2023-05-05T03:28:48.856Z,99202.19
2023-05-05T03:33:57.857Z,99202.25
2023-05-05T03:39:07.627Z,99203.16
2023-05-05T03:44:11.475Z,99207.50
2023-05-05T03:49:15.314Z,99202.38
2023-05-05T03:54:22.273Z,99205.03
2023-05-05T03:59:26.075Z,99210.38
2023-05-05T04:04:29.964Z,99213.00
2023-05-05T04:09:35.538Z,99212.19
2023-05-05T04:14:40.128Z,99216.53
2023-05-05T04:19:45.002Z,99213.91
2023-05-05T04:24:49.970Z,99204.34
2023-05-05T04:29:54.196Z,99216.59
2023-05-05T04:34:57.948Z,99206.19
2023-05-05T04:40:03.439Z,99210.59
2023-05-05T04:45:10.320Z,99218.41
2023-05-05T04:50:14.881Z,99214.91
2023-05-05T04:55:19.937Z,99212.28
2023-05-05T05:00:24.116Z,99205.31
2023-05-05T05:05:27.835Z,99212.19
2023-05-05T05:10:33.073Z,99219.91
2023-05-05T05:15:38.121Z,99216.44
2023-05-05T05:20:42.118Z,99208.56
2023-05-05T05:25:47.280Z,99200.59
2023-05-05T05:30:53.738Z,99208.88
2023-05-05T05:35:57.760Z,99212.97
2023-05-05T05:41:07.459Z,99216.38
2023-05-05T05:46:12.628Z,99219.19
2023-05-05T05:51:18.185Z,99217.25
2023-05-05T05:56:23.713Z,99228.91
2023-05-05T06:01:28.009Z,99228.00
2023-05-05T06:06:32.143Z,99232.94
2023-05-05T06:11:37.279Z,99230.38
2023-05-05T06:16:41.146Z,99233.63
2023-05-05T06:21:48.736Z,99227.56
2023-05-05T06:26:53.935Z,99233.34
2023-05-05T06:31:57.330Z,99239.78
2023-05-05T06:37:00.724Z,99235.66
2023-05-05T06:42:05.604Z,99244.00
2023-05-05T06:47:09.294Z,99240.03
2023-05-05T06:52:13.140Z,99238.69
2023-05-05T06:57:18.248Z,99235.41
2023-05-05T07:02:22.534Z,99234.69
2023-05-05T07:07:27.060Z,99233.66
2023-05-05T07:12:32.208Z,99225.81
2023-05-05T07:17:35.853Z,99223.47
2023-05-05T07:22:39.244Z,99227.53
2023-05-05T07:27:44.098Z,99239.03
2023-05-05T07:32:47.818Z,99240.81
2023-05-05T07:37:51.494Z,99254.84
2023-05-05T07:42:56.223Z,99245.38
2023-05-05T07:47:59.698Z,99256.38
2023-05-05T07:53:13.563Z,99255.34
2023-05-05T07:58:19.160Z,99267.31
2023-05-05T08:03:24.849Z,99264.31
2023-05-05T08:08:28.406Z,99264.81
2023-05-05T08:13:33.514Z,99262.53
2023-05-05T08:18:38.472Z,99257.66
2023-05-05T08:23:42.164Z,99268.28
2023-05-05T08:28:47.226Z,99264.59
2023-05-05T08:33:50.936Z,99266.81
2023-05-05T08:38:54.645Z,99269.34
2023-05-05T08:43:59.843Z,99275.63
2023-05-05T08:49:04.899Z,99277.91
2023-05-05T08:54:11.766Z,99270.97
2023-05-05T08:59:20.136Z,99273.63
2023-05-05T09:04:24.129Z,99271.66
2023-05-05T09:09:28.386Z,99269.34
2023-05-05T09:14:33.197Z,99270.09
2023-05-05T09:19:57.988Z,99270.81
2023-05-05T09:25:01.623Z,99267.38
2023-05-05T09:30:09.727Z,99256.53
2023-05-05T09:35:13.308Z,99258.19
2023-05-05T09:40:18.950Z,99259.56
2023-05-05T09:45:28.467Z,99250.31
2023-05-05T09:50:43.490Z,99239.84
2023-05-05T09:55:56.975Z,99231.00
2023-05-05T10:01:02.111Z,99229.63
2023-05-05T10:06:07.925Z,99222.03
2023-05-05T10:11:11.620Z,99222.03
2023-05-05T10:16:19.606Z,99224.75
2023-05-05T10:21:24.656Z,99212.63
2023-05-05T10:26:39.386Z,99217.03
2023-05-05T10:32:18.830Z,99212.56
2023-05-05T10:37:38.868Z,99204.84
2023-05-05T10:42:44.247Z,99202.78
2023-05-05T10:47:53.292Z,99203.38
2023-05-05T10:53:18.746Z,99200.00
2023-05-05T10:58:55.462Z,99187.00
2023-05-05T11:04:50.217Z,99183.94
2023-05-05T11:10:06.240Z,99180.75
2023-05-05T11:21:24.501Z,99150.94
2023-05-05T11:26:51.368Z,99171.25
2023-05-05T11:32:12.612Z,99160.00
2023-05-05T11:37:17.674Z,99143.66
2023-05-05T11:42:26.766Z,99130.88
2023-05-05T11:47:32.674Z,99121.28
2023-05-05T11:52:37.870Z,99120.94
2023-05-05T11:57:41.598Z,99122.84
2023-05-05T12:02:45.237Z,99114.75
2023-05-05T12:07:57.684Z,99092.94
2023-05-05T12:13:01.147Z,99102.16
2023-05-05T12:18:06.534Z,99091.91
2023-05-05T12:23:12.873Z,99077.44
2023-05-05T12:28:16.695Z,99078.25
2023-05-05T12:33:20.667Z,99072.56
2023-05-05T12:38:25.539Z,99059.69
2023-05-05T12:43:30.854Z,99063.13
2023-05-05T12:48:35.232Z,99052.28
2023-05-05T12:53:40.113Z,99047.66
2023-05-05T12:58:49.551Z,99042.81
2023-05-05T13:04:10.014Z,99032.34
2023-05-05T13:09:25.965Z,99022.22
2023-05-05T13:14:30.736Z,99008.44
2023-05-05T13:19:35.615Z,99022.53
2023-05-05T13:24:50.605Z,99016.22
2023-05-05T13:29:56.050Z,99012.84
2023-05-05T13:34:59.504Z,99014.69
2023-05-05T13:40:04.683Z,99003.47
2023-05-05T13:45:09.322Z,99005.69
2023-05-05T13:50:15.698Z,98997.34
2023-05-05T13:56:26.664Z,98992.34
2023-05-05T14:02:25.193Z,98989.41
2023-05-05T14:07:41.408Z,98989.88
2023-05-05T14:12:54.883Z,98978.53
2023-05-05T14:18:11.689Z,98974.06
2023-05-05T14:23:18.757Z,98977.59
2023-05-05T14:28:34.348Z,98967.13
2023-05-05T14:33:58.365Z,98966.25
2023-05-05T14:39:14.688Z,98976.16
2023-05-05T14:44:22.791Z,98968.63
2023-05-05T14:49:30.741Z,98970.75
2023-05-05T14:54:40.763Z,98965.09
2023-05-05T15:00:06.297Z,98950.72
2023-05-05T15:11:47.827Z,98945.88
2023-05-05T15:16:53.190Z,98953.00
2023-05-05T15:21:56.570Z,98937.59
2023-05-05T15:27:00.034Z,98953.22
2023-05-05T15:32:05.424Z,98942.38
2023-05-05T15:37:09.332Z,98947.13
2023-05-05T15:42:13.204Z,98937.47
2023-05-05T15:47:18.172Z,98937.94
2023-05-05T15:52:21.789Z,98933.41
2023-05-05T15:57:25.301Z,98940.03
2023-05-05T16:02:30.228Z,98943.22
2023-05-05T16:07:33.881Z,98943.34
2023-05-05T16:12:37.342Z,98942.09
2023-05-05T16:17:42.392Z,98937.84
2023-05-05T16:22:46.041Z,98939.63
2023-05-05T16:27:49.906Z,98943.47
2023-05-05T16:32:54.971Z,98940.13
2023-05-05T16:37:58.660Z,98943.75
2023-05-05T16:43:02.043Z,98955.00
2023-05-05T16:48:09.233Z,98950.47
2023-05-05T16:53:12.792Z,98958.63
2023-05-05T16:58:16.513Z,98961.81
2023-05-05T17:03:22.580Z,98963.22
2023-05-05T17:08:26.054Z,98974.59
2023-05-05T17:13:29.810Z,98974.56
2023-05-05T17:18:35.253Z,98980.41
2023-05-05T17:23:38.676Z,98981.91
2023-05-05T17:28:42.376Z,98980.88
2023-05-05T17:33:47.516Z,98983.00
2023-05-05T17:38:51.028Z,98990.47
2023-05-05T17:43:54.427Z,99000.50
2023-05-05T17:49:02.809Z,99007.91
2023-05-05T17:54:07.859Z,99008.31
2023-05-05T17:59:11.365Z,99016.44
2023-05-05T18:04:16.310Z,99009.72
2023-05-05T18:09:20.732Z,99016.00
2023-05-05T18:14:25.148Z,99020.69
2023-05-05T18:19:30.066Z,99023.38
2023-05-05T18:24:33.748Z,99020.31
2023-05-05T18:29:37.730Z,99029.75
2023-05-05T18:34:42.904Z,99026.94
2023-05-05T18:39:46.636Z,99038.63
2023-05-05T18:44:50.129Z,99039.13
2023-05-05T18:49:54.968Z,99038.53
2023-05-05T18:54:59.703Z,99044.06
2023-05-05T19:00:03.684Z,99042.53
2023-05-05T19:05:11.684Z,99042.97
2023-05-05T19:10:15.855Z,99034.56
2023-05-05T19:15:19.806Z,99032.81
2023-05-05T19:20:24.733Z,99037.81
2023-05-05T19:25:28.232Z,99037.81
2023-05-05T19:30:31.665Z,99033.22
2023-05-05T19:35:36.552Z,99029.78
2023-05-05T19:40:40.708Z,99030.22
2023-05-05T19:45:44.446Z,99039.53
2023-05-05T19:50:49.595Z,99030.22
2023-05-05T19:55:53.116Z,99025.66
2023-05-05T20:00:56.796Z,99016.41
2023-05-05T20:06:02.148Z,99012.25
2023-05-05T20:11:05.567Z,99009.59
2023-05-05T20:16:09.962Z,99010.41
2023-05-05T20:21:15.007Z,99001.88
2023-05-05T20:26:18.644Z,99009.09
2023-05-05T20:31:22.151Z,99008.38
2023-05-05T20:36:27.803Z,99009.41
2023-05-05T20:41:31.462Z,99002.78
2023-05-05T20:46:34.869Z,99004.59
2023-05-05T20:51:39.703Z,99000.13
2023-05-05T20:56:43.232Z,99014.91
2023-05-05T21:01:46.701Z,99002.72
2023-05-05T21:06:51.803Z,99001.47
2023-05-05T21:11:55.679Z,98991.72
2023-05-05T21:16:59.526Z,98989.22
2023-05-05T21:22:04.921Z,98993.63
2023-05-05T21:27:08.338Z,98983.19
2023-05-05T21:32:12.818Z,98991.69
2023-05-05T21:37:17.729Z,98989.16
2023-05-05T21:42:21.190Z,98984.13
2023-05-05T21:47:24.725Z,98977.16
2023-05-05T21:52:29.608Z,98977.88
2023-05-05T21:57:33.483Z,98974.38
2023-05-05T22:02:37.099Z,98973.47
2023-05-05T22:07:42.097Z,98967.44
2023-05-05T22:12:45.896Z,98958.72
2023-05-05T22:17:49.447Z,98959.59
2023-05-05T22:22:54.883Z,98950.94
2023-05-05T22:27:58.639Z,98956.19
2023-05-05T22:33:02.106Z,98956.09
2023-05-05T22:38:07.463Z,98949.91
2023-05-05T22:43:10.968Z,98934.22
2023-05-05T22:48:15.103Z,98931.66
2023-05-05T22:53:20.090Z,98925.44
2023-05-05T22:58:23.514Z,98916.72
2023-05-05T23:03:27.220Z,98908.06
2023-05-05T23:08:32.072Z,98910.63
2023-05-05T23:13:35.612Z,98901.31
2023-05-05T23:18:39.286Z,98890.81
2023-05-05T23:23:44.233Z,98886.34
2023-05-05T23:28:48.053Z,98881.19
2023-05-05T23:33:51.514Z,98882.06
2023-05-05T23:38:56.450Z,98886.31
2023-05-05T23:43:59.896Z,98879.19
2023-05-05T23:49:03.665Z,98872.16
2023-05-05T23:54:08.505Z,98873.88
2023-05-05T23:59:12.131Z,98879.28
